sensor_id;sensor_type;location;lat;lon;timestamp;temperature;humidity
3564;DHT22;1796;52.388;13.096;2024-01-06T00:01:31;1.30;99.90
3564;DHT22;1796;52.388;13.096;2024-01-06T00:04:07;1.40;99.90
3564;DHT22;1796;52.388;13.096;2024-01-06T00:24:23;1.30;99.90
3564;DHT22;1796;52.388;13.096;2024-01-06T00:28:47;1.20;99.90
3564;DHT22;1796;52.388;13.096;2024-01-06T00:31:01;1.30;99.90
3564;DHT22;1796;52.388;13.096;2024-01-06T00:34:42;1.20;99.90
3564;DHT22;1796;52.388;13.096;2024-01-06T01:05:20;1.30;99.90
3564;DHT22;1796;52.388;13.096;2024-01-06T01:08:17;1.20;99.90
3564;DHT22;1796;52.388;13.096;2024-01-06T01:32:44;1.20;99.90
3564;DHT22;1796;52.388;13.096;2024-01-06T02:27:14;1.10;99.90
3564;DHT22;1796;52.388;13.096;2024-01-06T02:29:56;1.00;99.90
3564;DHT22;1796;52.388;13.096;2024-01-06T02:32:58;0.90;99.90
3564;DHT22;1796;52.388;13.096;2024-01-06T02:35:31;1.00;99.90
3564;DHT22;1796;52.388;13.096;2024-01-06T02:38:05;1.00;99.90
3564;DHT22;1796;52.388;13.096;2024-01-06T02:40:35;1.00;99.90
3564;DHT22;1796;52.388;13.096;2024-01-06T02:43:17;1.00;99.90
3564;DHT22;1796;52.388;13.096;2024-01-06T02:45:58;1.10;99.90
3564;DHT22;1796;52.388;13.096;2024-01-06T02:48:48;1.10;99.90
3564;DHT22;1796;52.388;13.096;2024-01-06T02:51:47;1.10;99.90
3564;DHT22;1796;52.388;13.096;2024-01-06T02:54:36;1.00;99.90
3564;DHT22;1796;52.388;13.096;2024-01-06T03:08:19;1.00;99.90
3564;DHT22;1796;52.388;13.096;2024-01-06T03:18:29;1.00;99.90
3564;DHT22;1796;52.388;13.096;2024-01-06T03:21:15;0.90;99.90
3564;DHT22;1796;52.388;13.096;2024-01-06T03:34:29;0.90;99.90
3564;DHT22;1796;52.388;13.096;2024-01-06T03:37:07;0.90;99.90
3564;DHT22;1796;52.388;13.096;2024-01-06T03:43:53;0.90;99.90
3564;DHT22;1796;52.388;13.096;2024-01-06T03:46:26;0.80;99.90
3564;DHT22;1796;52.388;13.096;2024-01-06T03:49:12;1.00;99.90
3564;DHT22;1796;52.388;13.096;2024-01-06T03:54:33;1.00;99.90
3564;DHT22;1796;52.388;13.096;2024-01-06T03:55:53;0.90;99.90
3564;DHT22;1796;52.388;13.096;2024-01-06T03:59:34;0.80;99.90
3564;DHT22;1796;52.388;13.096;2024-01-06T04:02:50;0.80;99.90
3564;DHT22;1796;52.388;13.096;2024-01-06T04:05:29;0.80;99.90
3564;DHT22;1796;52.388;13.096;2024-01-06T04:08:12;0.90;99.90
3564;DHT22;1796;52.388;13.096;2024-01-06T04:11:03;0.90;99.90
3564;DHT22;1796;52.388;13.096;2024-01-06T04:13:54;0.90;99.90
3564;DHT22;1796;52.388;13.096;2024-01-06T04:16:32;0.90;99.90
3564;DHT22;1796;52.388;13.096;2024-01-06T04:19:21;0.90;99.90
3564;DHT22;1796;52.388;13.096;2024-01-06T04:22:00;0.90;99.90
3564;DHT22;1796;52.388;13.096;2024-01-06T04:25:20;0.90;99.90
3564;DHT22;1796;52.388;13.096;2024-01-06T04:27:51;0.80;99.90
3564;DHT22;1796;52.388;13.096;2024-01-06T04:30:35;0.80;99.90
3564;DHT22;1796;52.388;13.096;2024-01-06T04:33:17;0.90;99.90
3564;DHT22;1796;52.388;13.096;2024-01-06T04:35:50;0.80;99.90
3564;DHT22;1796;52.388;13.096;2024-01-06T04:38:34;0.80;99.90
3564;DHT22;1796;52.388;13.096;2024-01-06T04:41:17;0.80;99.90
3564;DHT22;1796;52.388;13.096;2024-01-06T04:44:25;0.80;99.90
3564;DHT22;1796;52.388;13.096;2024-01-06T04:59:05;0.80;99.90
3564;DHT22;1796;52.388;13.096;2024-01-06T05:04:45;0.80;99.90
3564;DHT22;1796;52.388;13.096;2024-01-06T05:07:48;0.80;99.90
3564;DHT22;1796;52.388;13.096;2024-01-06T05:11:12;0.70;99.90
3564;DHT22;1796;52.388;13.096;2024-01-06T05:14:24;0.70;99.90
3564;DHT22;1796;52.388;13.096;2024-01-06T05:17:05;0.70;99.90
3564;DHT22;1796;52.388;13.096;2024-01-06T05:19:35;0.70;99.90
3564;DHT22;1796;52.388;13.096;2024-01-06T05:24:56;0.70;99.90
3564;DHT22;1796;52.388;13.096;2024-01-06T05:27:30;0.80;99.90
3564;DHT22;1796;52.388;13.096;2024-01-06T05:30:08;0.70;99.90
3564;DHT22;1796;52.388;13.096;2024-01-06T05:32:49;0.60;99.90
3564;DHT22;1796;52.388;13.096;2024-01-06T05:35:20;0.60;99.90
3564;DHT22;1796;52.388;13.096;2024-01-06T05:37:50;0.70;99.90
3564;DHT22;1796;52.388;13.096;2024-01-06T05:40:20;0.60;99.90
3564;DHT22;1796;52.388;13.096;2024-01-06T05:42:48;0.70;99.90
3564;DHT22;1796;52.388;13.096;2024-01-06T05:45:18;0.60;99.90
3564;DHT22;1796;52.388;13.096;2024-01-06T05:47:45;0.50;99.90
3564;DHT22;1796;52.388;13.096;2024-01-06T05:50:16;0.60;99.90
3564;DHT22;1796;52.388;13.096;2024-01-06T05:52:43;0.70;99.90
3564;DHT22;1796;52.388;13.096;2024-01-06T05:55:10;0.70;99.90
3564;DHT22;1796;52.388;13.096;2024-01-06T05:57:37;0.50;99.90
3564;DHT22;1796;52.388;13.096;2024-01-06T06:00:09;0.70;99.90
3564;DHT22;1796;52.388;13.096;2024-01-06T06:02:41;0.70;99.90
3564;DHT22;1796;52.388;13.096;2024-01-06T06:05:08;0.70;99.90
3564;DHT22;1796;52.388;13.096;2024-01-06T06:07:36;0.70;99.90
3564;DHT22;1796;52.388;13.096;2024-01-06T06:10:08;0.70;99.90
3564;DHT22;1796;52.388;13.096;2024-01-06T06:12:36;0.70;99.90
3564;DHT22;1796;52.388;13.096;2024-01-06T06:15:04;0.70;99.90
3564;DHT22;1796;52.388;13.096;2024-01-06T06:17:32;0.60;99.90
3564;DHT22;1796;52.388;13.096;2024-01-06T06:20:01;0.70;99.90
3564;DHT22;1796;52.388;13.096;2024-01-06T06:22:28;0.70;99.90
3564;DHT22;1796;52.388;13.096;2024-01-06T06:24:56;0.60;99.90
3564;DHT22;1796;52.388;13.096;2024-01-06T06:27:23;0.70;99.90
3564;DHT22;1796;52.388;13.096;2024-01-06T06:29:54;0.70;99.90
3564;DHT22;1796;52.388;13.096;2024-01-06T06:32:23;0.70;99.90
3564;DHT22;1796;52.388;13.096;2024-01-06T06:34:51;0.70;99.90
3564;DHT22;1796;52.388;13.096;2024-01-06T06:37:20;0.70;99.90
3564;DHT22;1796;52.388;13.096;2024-01-06T06:39:56;0.70;99.90
3564;DHT22;1796;52.388;13.096;2024-01-06T06:42:25;0.70;99.90
3564;DHT22;1796;52.388;13.096;2024-01-06T06:45:04;0.80;99.90
3564;DHT22;1796;52.388;13.096;2024-01-06T06:47:31;0.80;99.90
3564;DHT22;1796;52.388;13.096;2024-01-06T06:50:09;0.80;99.90
3564;DHT22;1796;52.388;13.096;2024-01-06T06:52:48;0.80;99.90
3564;DHT22;1796;52.388;13.096;2024-01-06T06:55:18;0.80;99.90
3564;DHT22;1796;52.388;13.096;2024-01-06T06:57:45;0.90;99.90
3564;DHT22;1796;52.388;13.096;2024-01-06T07:00:13;0.90;99.90
3564;DHT22;1796;52.388;13.096;2024-01-06T07:02:41;0.80;99.90
3564;DHT22;1796;52.388;13.096;2024-01-06T07:05:09;0.80;99.90
3564;DHT22;1796;52.388;13.096;2024-01-06T07:07:40;0.70;99.90
3564;DHT22;1796;52.388;13.096;2024-01-06T07:10:09;0.70;99.90
3564;DHT22;1796;52.388;13.096;2024-01-06T07:12:37;0.70;99.90
3564;DHT22;1796;52.388;13.096;2024-01-06T07:15:05;0.80;99.90
3564;DHT22;1796;52.388;13.096;2024-01-06T07:17:37;0.60;99.90
3564;DHT22;1796;52.388;13.096;2024-01-06T07:20:06;0.60;99.90
3564;DHT22;1796;52.388;13.096;2024-01-06T07:22:33;0.60;99.90
3564;DHT22;1796;52.388;13.096;2024-01-06T07:25:03;0.60;99.90
3564;DHT22;1796;52.388;13.096;2024-01-06T07:27:30;0.70;99.90
3564;DHT22;1796;52.388;13.096;2024-01-06T07:29:57;0.60;99.90
3564;DHT22;1796;52.388;13.096;2024-01-06T07:32:25;0.60;99.90
3564;DHT22;1796;52.388;13.096;2024-01-06T07:34:52;0.70;99.90
3564;DHT22;1796;52.388;13.096;2024-01-06T07:37:22;0.60;99.90
3564;DHT22;1796;52.388;13.096;2024-01-06T07:39:49;0.70;99.90
3564;DHT22;1796;52.388;13.096;2024-01-06T07:42:18;0.60;99.90
3564;DHT22;1796;52.388;13.096;2024-01-06T07:44:45;0.60;99.90
3564;DHT22;1796;52.388;13.096;2024-01-06T07:47:12;0.50;99.90
3564;DHT22;1796;52.388;13.096;2024-01-06T07:49:40;0.40;99.90
3564;DHT22;1796;52.388;13.096;2024-01-06T07:52:07;0.50;99.90
3564;DHT22;1796;52.388;13.096;2024-01-06T07:54:34;0.50;99.90
3564;DHT22;1796;52.388;13.096;2024-01-06T07:57:01;0.40;99.90
3564;DHT22;1796;52.388;13.096;2024-01-06T07:59:30;0.40;99.90
3564;DHT22;1796;52.388;13.096;2024-01-06T08:01:59;0.50;99.90
3564;DHT22;1796;52.388;13.096;2024-01-06T08:04:30;0.50;99.90
3564;DHT22;1796;52.388;13.096;2024-01-06T08:11:56;0.50;99.90
3564;DHT22;1796;52.388;13.096;2024-01-06T08:22:01;0.50;99.90
3564;DHT22;1796;52.388;13.096;2024-01-06T08:24:55;0.50;99.90
3564;DHT22;1796;52.388;13.096;2024-01-06T08:37:30;0.60;99.90
3564;DHT22;1796;52.388;13.096;2024-01-06T08:39:57;0.70;99.90
3564;DHT22;1796;52.388;13.096;2024-01-06T08:42:24;0.60;99.90
3564;DHT22;1796;52.388;13.096;2024-01-06T08:44:51;0.50;99.90
3564;DHT22;1796;52.388;13.096;2024-01-06T08:47:18;0.50;99.90
3564;DHT22;1796;52.388;13.096;2024-01-06T08:49:47;0.50;99.90
3564;DHT22;1796;52.388;13.096;2024-01-06T08:52:15;0.50;99.90
3564;DHT22;1796;52.388;13.096;2024-01-06T08:54:42;0.60;99.90
3564;DHT22;1796;52.388;13.096;2024-01-06T08:57:10;0.60;99.90
3564;DHT22;1796;52.388;13.096;2024-01-06T08:59:37;0.50;99.90
3564;DHT22;1796;52.388;13.096;2024-01-06T09:02:05;0.60;99.90
3564;DHT22;1796;52.388;13.096;2024-01-06T09:04:33;0.50;99.90
3564;DHT22;1796;52.388;13.096;2024-01-06T09:07:01;0.40;99.90
3564;DHT22;1796;52.388;13.096;2024-01-06T09:09:28;0.30;99.90
3564;DHT22;1796;52.388;13.096;2024-01-06T09:11:56;0.30;99.90
3564;DHT22;1796;52.388;13.096;2024-01-06T09:14:23;0.30;99.90
3564;DHT22;1796;52.388;13.096;2024-01-06T09:16:50;0.30;99.90
3564;DHT22;1796;52.388;13.096;2024-01-06T09:19:17;0.40;99.90
3564;DHT22;1796;52.388;13.096;2024-01-06T09:21:44;0.40;99.90
3564;DHT22;1796;52.388;13.096;2024-01-06T09:24:12;0.40;99.90
3564;DHT22;1796;52.388;13.096;2024-01-06T09:26:39;0.50;99.90
3564;DHT22;1796;52.388;13.096;2024-01-06T09:29:07;0.40;99.90
3564;DHT22;1796;52.388;13.096;2024-01-06T09:31:36;0.30;99.90
3564;DHT22;1796;52.388;13.096;2024-01-06T09:34:07;0.30;99.90
3564;DHT22;1796;52.388;13.096;2024-01-06T09:36:35;0.30;99.90
3564;DHT22;1796;52.388;13.096;2024-01-06T09:39:04;0.20;99.90
3564;DHT22;1796;52.388;13.096;2024-01-06T09:41:35;0.20;99.90
3564;DHT22;1796;52.388;13.096;2024-01-06T09:44:01;0.30;99.90
3564;DHT22;1796;52.388;13.096;2024-01-06T09:46:29;0.30;99.90
3564;DHT22;1796;52.388;13.096;2024-01-06T09:48:56;0.20;99.90
3564;DHT22;1796;52.388;13.096;2024-01-06T09:51:24;0.20;99.90
3564;DHT22;1796;52.388;13.096;2024-01-06T09:53:56;0.10;99.90
3564;DHT22;1796;52.388;13.096;2024-01-06T09:56:24;0.10;99.90
3564;DHT22;1796;52.388;13.096;2024-01-06T09:58:56;0.20;99.90
3564;DHT22;1796;52.388;13.096;2024-01-06T10:01:23;0.20;99.90
3564;DHT22;1796;52.388;13.096;2024-01-06T10:03:49;0.30;99.90
3564;DHT22;1796;52.388;13.096;2024-01-06T10:06:17;0.10;99.90
3564;DHT22;1796;52.388;13.096;2024-01-06T10:08:49;0.20;99.90
3564;DHT22;1796;52.388;13.096;2024-01-06T10:11:16;0.10;99.90
3564;DHT22;1796;52.388;13.096;2024-01-06T10:13:43;0.00;99.90
3564;DHT22;1796;52.388;13.096;2024-01-06T10:16:11;0.00;99.90
3564;DHT22;1796;52.388;13.096;2024-01-06T10:18:39;0.00;99.90
3564;DHT22;1796;52.388;13.096;2024-01-06T10:21:06;0.00;99.90
3564;DHT22;1796;52.388;13.096;2024-01-06T10:23:33;-0.10;99.90
3564;DHT22;1796;52.388;13.096;2024-01-06T10:26:00;-0.10;99.90
3564;DHT22;1796;52.388;13.096;2024-01-06T10:28:27;-0.10;99.90
3564;DHT22;1796;52.388;13.096;2024-01-06T10:30:55;-0.10;99.90
3564;DHT22;1796;52.388;13.096;2024-01-06T10:33:25;-0.10;99.90
3564;DHT22;1796;52.388;13.096;2024-01-06T10:35:53;-0.20;99.90
3564;DHT22;1796;52.388;13.096;2024-01-06T10:38:20;-0.20;99.90
3564;DHT22;1796;52.388;13.096;2024-01-06T10:40:57;-0.20;99.90
3564;DHT22;1796;52.388;13.096;2024-01-06T10:43:26;-0.20;99.90
3564;DHT22;1796;52.388;13.096;2024-01-06T10:45:55;-0.20;99.90
3564;DHT22;1796;52.388;13.096;2024-01-06T10:48:26;-0.20;99.90
3564;DHT22;1796;52.388;13.096;2024-01-06T10:50:55;-0.10;99.90
3564;DHT22;1796;52.388;13.096;2024-01-06T10:53:22;-0.20;99.90
3564;DHT22;1796;52.388;13.096;2024-01-06T10:55:52;-0.20;99.90
3564;DHT22;1796;52.388;13.096;2024-01-06T10:58:19;-0.20;99.90
3564;DHT22;1796;52.388;13.096;2024-01-06T11:00:47;-0.20;99.90
3564;DHT22;1796;52.388;13.096;2024-01-06T11:03:14;-0.20;99.90
3564;DHT22;1796;52.388;13.096;2024-01-06T11:05:42;-0.20;99.90
3564;DHT22;1796;52.388;13.096;2024-01-06T11:08:10;-0.10;99.90
3564;DHT22;1796;52.388;13.096;2024-01-06T11:10:39;-0.20;99.90
3564;DHT22;1796;52.388;13.096;2024-01-06T11:13:08;-0.10;99.90
3564;DHT22;1796;52.388;13.096;2024-01-06T11:15:43;-0.20;99.90
3564;DHT22;1796;52.388;13.096;2024-01-06T11:18:31;-0.20;99.90
3564;DHT22;1796;52.388;13.096;2024-01-06T11:21:19;-0.20;99.90
3564;DHT22;1796;52.388;13.096;2024-01-06T11:24:14;-0.10;99.90
3564;DHT22;1796;52.388;13.096;2024-01-06T11:26:43;-0.20;99.90
3564;DHT22;1796;52.388;13.096;2024-01-06T11:29:10;-0.20;99.90
3564;DHT22;1796;52.388;13.096;2024-01-06T11:31:38;-0.20;99.90
3564;DHT22;1796;52.388;13.096;2024-01-06T11:34:14;-0.20;99.90
3564;DHT22;1796;52.388;13.096;2024-01-06T11:36:43;-0.10;99.90
3564;DHT22;1796;52.388;13.096;2024-01-06T11:39:34;-0.10;99.90
3564;DHT22;1796;52.388;13.096;2024-01-06T11:42:00;-0.20;99.90
3564;DHT22;1796;52.388;13.096;2024-01-06T11:44:28;-0.20;99.90
3564;DHT22;1796;52.388;13.096;2024-01-06T11:46:56;-0.20;99.90
3564;DHT22;1796;52.388;13.096;2024-01-06T11:49:26;-0.20;99.90
3564;DHT22;1796;52.388;13.096;2024-01-06T11:51:56;-0.10;99.90
3564;DHT22;1796;52.388;13.096;2024-01-06T11:54:23;-0.10;99.90
3564;DHT22;1796;52.388;13.096;2024-01-06T11:56:50;-0.10;99.90
3564;DHT22;1796;52.388;13.096;2024-01-06T11:59:18;-0.10;99.90
3564;DHT22;1796;52.388;13.096;2024-01-06T12:01:46;-0.10;99.90
3564;DHT22;1796;52.388;13.096;2024-01-06T12:04:14;0.00;99.90
3564;DHT22;1796;52.388;13.096;2024-01-06T12:06:42;0.00;99.90
3564;DHT22;1796;52.388;13.096;2024-01-06T12:09:12;0.00;99.90
3564;DHT22;1796;52.388;13.096;2024-01-06T12:11:41;-0.10;99.90
3564;DHT22;1796;52.388;13.096;2024-01-06T12:14:10;-0.10;99.90
3564;DHT22;1796;52.388;13.096;2024-01-06T12:16:37;-0.10;99.90
3564;DHT22;1796;52.388;13.096;2024-01-06T12:19:04;-0.10;99.90
3564;DHT22;1796;52.388;13.096;2024-01-06T12:21:31;0.00;99.90
3564;DHT22;1796;52.388;13.096;2024-01-06T12:24:20;0.00;99.90
3564;DHT22;1796;52.388;13.096;2024-01-06T12:26:48;-0.10;99.90
3564;DHT22;1796;52.388;13.096;2024-01-06T12:29:17;-0.20;99.90
3564;DHT22;1796;52.388;13.096;2024-01-06T12:31:44;-0.10;99.90
3564;DHT22;1796;52.388;13.096;2024-01-06T12:34:11;-0.20;99.90
3564;DHT22;1796;52.388;13.096;2024-01-06T12:36:39;-0.10;99.90
3564;DHT22;1796;52.388;13.096;2024-01-06T12:39:10;-0.10;99.90
3564;DHT22;1796;52.388;13.096;2024-01-06T12:41:40;-0.10;99.90
3564;DHT22;1796;52.388;13.096;2024-01-06T12:44:07;-0.10;99.90
3564;DHT22;1796;52.388;13.096;2024-01-06T12:46:34;-0.10;99.90
3564;DHT22;1796;52.388;13.096;2024-01-06T12:49:02;-0.10;99.90
3564;DHT22;1796;52.388;13.096;2024-01-06T12:51:29;-0.10;99.90
3564;DHT22;1796;52.388;13.096;2024-01-06T12:53:55;-0.10;99.90
3564;DHT22;1796;52.388;13.096;2024-01-06T12:56:22;-0.10;99.90
3564;DHT22;1796;52.388;13.096;2024-01-06T12:58:51;-0.10;99.90
3564;DHT22;1796;52.388;13.096;2024-01-06T13:01:18;-0.20;99.90
3564;DHT22;1796;52.388;13.096;2024-01-06T13:03:45;-0.20;99.90
3564;DHT22;1796;52.388;13.096;2024-01-06T13:06:12;-0.30;99.90
3564;DHT22;1796;52.388;13.096;2024-01-06T13:08:40;-0.10;99.90
3564;DHT22;1796;52.388;13.096;2024-01-06T13:11:07;-0.30;99.90
3564;DHT22;1796;52.388;13.096;2024-01-06T13:13:34;-0.20;99.90
3564;DHT22;1796;52.388;13.096;2024-01-06T13:16:05;-0.20;99.90
3564;DHT22;1796;52.388;13.096;2024-01-06T13:18:32;-0.30;99.90
3564;DHT22;1796;52.388;13.096;2024-01-06T13:20:59;-0.20;99.90
3564;DHT22;1796;52.388;13.096;2024-01-06T13:23:26;-0.10;99.90
3564;DHT22;1796;52.388;13.096;2024-01-06T13:25:52;-0.20;99.90
3564;DHT22;1796;52.388;13.096;2024-01-06T13:28:19;-0.10;99.90
3564;DHT22;1796;52.388;13.096;2024-01-06T13:30:49;0.00;99.90
3564;DHT22;1796;52.388;13.096;2024-01-06T13:33:18;-0.10;99.90
3564;DHT22;1796;52.388;13.096;2024-01-06T13:35:44;-0.20;99.90
3564;DHT22;1796;52.388;13.096;2024-01-06T13:38:10;-0.30;99.90
3564;DHT22;1796;52.388;13.096;2024-01-06T13:40:37;-0.30;99.90
3564;DHT22;1796;52.388;13.096;2024-01-06T13:43:04;-0.40;99.90
3564;DHT22;1796;52.388;13.096;2024-01-06T13:45:35;-0.40;99.90
3564;DHT22;1796;52.388;13.096;2024-01-06T13:48:02;-0.30;99.90
3564;DHT22;1796;52.388;13.096;2024-01-06T13:50:30;-0.40;99.90
3564;DHT22;1796;52.388;13.096;2024-01-06T13:52:58;-0.40;99.90
3564;DHT22;1796;52.388;13.096;2024-01-06T13:55:25;-0.40;99.90
3564;DHT22;1796;52.388;13.096;2024-01-06T13:57:52;-0.40;99.90
3564;DHT22;1796;52.388;13.096;2024-01-06T14:00:20;-0.30;99.90
3564;DHT22;1796;52.388;13.096;2024-01-06T14:02:47;-0.30;99.90
3564;DHT22;1796;52.388;13.096;2024-01-06T14:05:14;-0.30;99.90
3564;DHT22;1796;52.388;13.096;2024-01-06T14:07:43;-0.40;99.90
3564;DHT22;1796;52.388;13.096;2024-01-06T14:10:12;-0.40;99.90
3564;DHT22;1796;52.388;13.096;2024-01-06T14:12:40;-0.40;99.90
3564;DHT22;1796;52.388;13.096;2024-01-06T14:15:08;-0.40;99.90
3564;DHT22;1796;52.388;13.096;2024-01-06T14:17:35;-0.40;99.90
3564;DHT22;1796;52.388;13.096;2024-01-06T14:20:02;-0.40;99.90
3564;DHT22;1796;52.388;13.096;2024-01-06T14:22:30;-0.30;99.90
3564;DHT22;1796;52.388;13.096;2024-01-06T14:24:58;-0.30;99.90
3564;DHT22;1796;52.388;13.096;2024-01-06T14:27:25;-0.40;99.90
3564;DHT22;1796;52.388;13.096;2024-01-06T14:29:54;-0.40;99.90
3564;DHT22;1796;52.388;13.096;2024-01-06T14:32:21;-0.40;99.90
3564;DHT22;1796;52.388;13.096;2024-01-06T14:34:49;-0.50;99.90
3564;DHT22;1796;52.388;13.096;2024-01-06T14:37:16;-0.40;99.90
3564;DHT22;1796;52.388;13.096;2024-01-06T14:39:43;-0.40;99.90
3564;DHT22;1796;52.388;13.096;2024-01-06T14:42:12;-0.40;99.90
3564;DHT22;1796;52.388;13.096;2024-01-06T14:44:39;-0.40;99.90
3564;DHT22;1796;52.388;13.096;2024-01-06T14:47:06;-0.40;99.90
3564;DHT22;1796;52.388;13.096;2024-01-06T14:49:33;-0.40;99.90
3564;DHT22;1796;52.388;13.096;2024-01-06T14:52:00;-0.50;99.90
3564;DHT22;1796;52.388;13.096;2024-01-06T14:54:28;-0.50;99.90
3564;DHT22;1796;52.388;13.096;2024-01-06T14:56:56;-0.50;99.90
3564;DHT22;1796;52.388;13.096;2024-01-06T14:59:25;-0.50;99.90
3564;DHT22;1796;52.388;13.096;2024-01-06T15:01:51;-0.50;99.90
3564;DHT22;1796;52.388;13.096;2024-01-06T15:04:18;-0.40;99.90
3564;DHT22;1796;52.388;13.096;2024-01-06T15:06:46;-0.50;99.90
3564;DHT22;1796;52.388;13.096;2024-01-06T15:09:12;-0.50;99.90
3564;DHT22;1796;52.388;13.096;2024-01-06T15:11:39;-0.50;99.90
3564;DHT22;1796;52.388;13.096;2024-01-06T15:14:06;-0.50;99.90
3564;DHT22;1796;52.388;13.096;2024-01-06T15:16:35;-0.50;99.90
3564;DHT22;1796;52.388;13.096;2024-01-06T15:19:03;-0.50;99.90
3564;DHT22;1796;52.388;13.096;2024-01-06T15:21:30;-0.50;99.90
3564;DHT22;1796;52.388;13.096;2024-01-06T15:23:59;-0.50;99.90
3564;DHT22;1796;52.388;13.096;2024-01-06T15:26:26;-0.40;99.90
3564;DHT22;1796;52.388;13.096;2024-01-06T15:28:53;-0.50;99.90
3564;DHT22;1796;52.388;13.096;2024-01-06T15:31:21;-0.40;99.90
3564;DHT22;1796;52.388;13.096;2024-01-06T15:33:52;-0.40;99.90
3564;DHT22;1796;52.388;13.096;2024-01-06T15:36:19;-0.40;99.90
3564;DHT22;1796;52.388;13.096;2024-01-06T15:38:46;-0.40;99.90
3564;DHT22;1796;52.388;13.096;2024-01-06T15:41:14;-0.50;99.90
3564;DHT22;1796;52.388;13.096;2024-01-06T15:43:41;-0.50;99.90
3564;DHT22;1796;52.388;13.096;2024-01-06T15:46:07;-0.50;99.90
3564;DHT22;1796;52.388;13.096;2024-01-06T15:48:34;-0.50;99.90
3564;DHT22;1796;52.388;13.096;2024-01-06T15:51:04;-0.50;99.90
3564;DHT22;1796;52.388;13.096;2024-01-06T15:53:31;-0.50;99.90
3564;DHT22;1796;52.388;13.096;2024-01-06T15:55:59;-0.50;99.90
3564;DHT22;1796;52.388;13.096;2024-01-06T15:58:26;-0.50;99.90
3564;DHT22;1796;52.388;13.096;2024-01-06T16:00:52;-0.50;99.90
3564;DHT22;1796;52.388;13.096;2024-01-06T16:03:19;-0.50;99.90
3564;DHT22;1796;52.388;13.096;2024-01-06T16:05:47;-0.50;99.90
3564;DHT22;1796;52.388;13.096;2024-01-06T16:08:15;-0.50;99.90
3564;DHT22;1796;52.388;13.096;2024-01-06T16:10:42;-0.50;99.90
3564;DHT22;1796;52.388;13.096;2024-01-06T16:13:09;-0.50;99.90
3564;DHT22;1796;52.388;13.096;2024-01-06T16:15:36;-0.50;99.90
3564;DHT22;1796;52.388;13.096;2024-01-06T16:18:04;-0.50;99.90
3564;DHT22;1796;52.388;13.096;2024-01-06T16:20:31;-0.50;99.90
3564;DHT22;1796;52.388;13.096;2024-01-06T16:22:58;-0.50;99.90
3564;DHT22;1796;52.388;13.096;2024-01-06T16:25:26;-0.40;99.90
3564;DHT22;1796;52.388;13.096;2024-01-06T16:27:53;-0.50;99.90
3564;DHT22;1796;52.388;13.096;2024-01-06T16:30:20;-0.40;99.90
3564;DHT22;1796;52.388;13.096;2024-01-06T16:32:59;-0.50;99.90
3564;DHT22;1796;52.388;13.096;2024-01-06T16:35:27;-0.50;99.90
3564;DHT22;1796;52.388;13.096;2024-01-06T16:37:54;-0.50;99.90
3564;DHT22;1796;52.388;13.096;2024-01-06T16:40:23;-0.50;99.90
3564;DHT22;1796;52.388;13.096;2024-01-06T16:42:51;-0.50;99.90
3564;DHT22;1796;52.388;13.096;2024-01-06T16:45:18;-0.40;99.90
3564;DHT22;1796;52.388;13.096;2024-01-06T16:47:45;-0.50;99.90
3564;DHT22;1796;52.388;13.096;2024-01-06T16:50:13;-0.50;99.90
3564;DHT22;1796;52.388;13.096;2024-01-06T16:52:39;-0.50;99.90
3564;DHT22;1796;52.388;13.096;2024-01-06T16:55:07;-0.50;99.90
3564;DHT22;1796;52.388;13.096;2024-01-06T16:57:34;-0.50;99.90
3564;DHT22;1796;52.388;13.096;2024-01-06T17:00:03;-0.40;99.90
3564;DHT22;1796;52.388;13.096;2024-01-06T17:02:30;-0.50;99.90
3564;DHT22;1796;52.388;13.096;2024-01-06T17:04:57;-0.50;99.90
3564;DHT22;1796;52.388;13.096;2024-01-06T17:07:24;-0.50;99.90
3564;DHT22;1796;52.388;13.096;2024-01-06T17:09:52;-0.50;99.90
3564;DHT22;1796;52.388;13.096;2024-01-06T17:12:20;-0.50;99.90
3564;DHT22;1796;52.388;13.096;2024-01-06T17:14:47;-0.50;99.90
3564;DHT22;1796;52.388;13.096;2024-01-06T17:17:15;-0.50;99.90
3564;DHT22;1796;52.388;13.096;2024-01-06T17:19:42;-0.40;99.90
3564;DHT22;1796;52.388;13.096;2024-01-06T17:22:09;-0.50;99.90
3564;DHT22;1796;52.388;13.096;2024-01-06T17:24:36;-0.50;99.90
3564;DHT22;1796;52.388;13.096;2024-01-06T17:27:03;-0.60;99.90
3564;DHT22;1796;52.388;13.096;2024-01-06T17:29:32;-0.60;99.90
3564;DHT22;1796;52.388;13.096;2024-01-06T17:31:59;-0.60;99.90
3564;DHT22;1796;52.388;13.096;2024-01-06T17:34:27;-0.60;99.90
3564;DHT22;1796;52.388;13.096;2024-01-06T17:36:54;-0.60;99.90
3564;DHT22;1796;52.388;13.096;2024-01-06T17:39:21;-0.60;99.90
3564;DHT22;1796;52.388;13.096;2024-01-06T17:41:48;-0.60;99.90
3564;DHT22;1796;52.388;13.096;2024-01-06T17:44:15;-0.60;99.90
3564;DHT22;1796;52.388;13.096;2024-01-06T17:46:41;-0.60;99.90
3564;DHT22;1796;52.388;13.096;2024-01-06T17:49:08;-0.50;99.90
3564;DHT22;1796;52.388;13.096;2024-01-06T17:51:36;-0.60;99.90
3564;DHT22;1796;52.388;13.096;2024-01-06T17:54:03;-0.50;99.90
3564;DHT22;1796;52.388;13.096;2024-01-06T17:56:30;-0.60;99.90
3564;DHT22;1796;52.388;13.096;2024-01-06T17:58:57;-0.70;99.90
3564;DHT22;1796;52.388;13.096;2024-01-06T18:01:27;-0.80;99.90
3564;DHT22;1796;52.388;13.096;2024-01-06T18:03:54;-0.90;99.90
3564;DHT22;1796;52.388;13.096;2024-01-06T18:06:21;-0.90;99.90
3564;DHT22;1796;52.388;13.096;2024-01-06T18:08:50;-0.90;99.90
3564;DHT22;1796;52.388;13.096;2024-01-06T18:11:17;-0.90;99.90
3564;DHT22;1796;52.388;13.096;2024-01-06T18:13:44;-0.90;99.90
3564;DHT22;1796;52.388;13.096;2024-01-06T18:16:12;-0.90;99.90
3564;DHT22;1796;52.388;13.096;2024-01-06T18:18:39;-0.90;99.90
3564;DHT22;1796;52.388;13.096;2024-01-06T18:21:06;-0.80;99.90
3564;DHT22;1796;52.388;13.096;2024-01-06T18:23:34;-0.90;99.90
3564;DHT22;1796;52.388;13.096;2024-01-06T18:26:02;-0.90;99.90
3564;DHT22;1796;52.388;13.096;2024-01-06T18:28:29;-0.90;99.90
3564;DHT22;1796;52.388;13.096;2024-01-06T18:30:57;-1.00;99.90
3564;DHT22;1796;52.388;13.096;2024-01-06T18:33:25;-0.90;99.90
3564;DHT22;1796;52.388;13.096;2024-01-06T18:35:52;-0.90;99.90
3564;DHT22;1796;52.388;13.096;2024-01-06T18:38:19;-0.90;99.90
3564;DHT22;1796;52.388;13.096;2024-01-06T18:40:46;-1.10;99.90
3564;DHT22;1796;52.388;13.096;2024-01-06T18:43:16;-1.10;99.90
3564;DHT22;1796;52.388;13.096;2024-01-06T18:45:44;-1.20;99.90
3564;DHT22;1796;52.388;13.096;2024-01-06T18:48:13;-1.20;99.90
3564;DHT22;1796;52.388;13.096;2024-01-06T18:50:58;-1.20;99.90
3564;DHT22;1796;52.388;13.096;2024-01-06T18:53:25;-1.20;99.90
3564;DHT22;1796;52.388;13.096;2024-01-06T18:55:53;-1.10;99.90
3564;DHT22;1796;52.388;13.096;2024-01-06T18:58:25;-1.10;99.90
3564;DHT22;1796;52.388;13.096;2024-01-06T19:00:52;-1.10;99.90
3564;DHT22;1796;52.388;13.096;2024-01-06T19:03:19;-1.00;99.90
3564;DHT22;1796;52.388;13.096;2024-01-06T19:05:46;-1.00;99.90
3564;DHT22;1796;52.388;13.096;2024-01-06T19:08:13;-0.90;99.90
3564;DHT22;1796;52.388;13.096;2024-01-06T19:10:40;-0.90;99.90
3564;DHT22;1796;52.388;13.096;2024-01-06T19:13:07;-0.90;99.90
3564;DHT22;1796;52.388;13.096;2024-01-06T19:15:37;-0.90;99.90
3564;DHT22;1796;52.388;13.096;2024-01-06T19:18:05;-0.90;99.90
3564;DHT22;1796;52.388;13.096;2024-01-06T19:20:32;-0.90;99.90
3564;DHT22;1796;52.388;13.096;2024-01-06T19:22:59;-0.90;99.90
3564;DHT22;1796;52.388;13.096;2024-01-06T19:25:26;-0.90;99.90
3564;DHT22;1796;52.388;13.096;2024-01-06T19:27:53;-0.90;99.90
3564;DHT22;1796;52.388;13.096;2024-01-06T19:30:19;-1.00;99.90
3564;DHT22;1796;52.388;13.096;2024-01-06T19:32:48;-0.90;99.90